createdAt,value
2019-03-21T00:00:34.674Z,1010.12
2019-03-21T00:01:34.849Z,1010.09
2019-03-21T00:02:35.013Z,1010.05
2019-03-21T00:03:35.203Z,1010.09
2019-03-21T00:04:35.367Z,1010.07
2019-03-21T00:05:35.542Z,1010.11
2019-03-21T00:06:35.705Z,1010.13
2019-03-21T00:07:35.879Z,1010.16
2019-03-21T00:08:36.052Z,1010.18
2019-03-21T00:09:36.226Z,1010.21
2019-03-21T00:10:36.397Z,1010.16
2019-03-21T00:11:36.576Z,1010.15
2019-03-21T00:12:36.748Z,1010.16
2019-03-21T00:13:36.922Z,1010.17
2019-03-21T00:14:37.098Z,1010.16
2019-03-21T00:15:37.266Z,1010.14
2019-03-21T00:16:37.439Z,1010.11
2019-03-21T00:18:37.780Z,1010.21
2019-03-21T00:19:37.959Z,1010.20
2019-03-21T00:20:38.141Z,1010.23
2019-03-21T00:21:38.294Z,1010.20
2019-03-21T00:22:38.467Z,1010.21
2019-03-21T00:23:38.640Z,1010.22
2019-03-21T00:24:38.809Z,1010.23
2019-03-21T00:25:38.968Z,1010.25
2019-03-21T00:26:39.139Z,1010.24
2019-03-21T00:27:39.313Z,1010.26
2019-03-21T00:28:39.487Z,1010.24
2019-03-21T00:29:39.657Z,1010.26
2019-03-21T00:30:39.827Z,1010.27
2019-03-21T00:31:47.623Z,1010.27
2019-03-21T00:32:40.161Z,1010.27
2019-03-21T00:33:40.329Z,1010.28
2019-03-21T00:34:40.502Z,1010.32
2019-03-21T00:35:40.687Z,1010.27
2019-03-21T00:36:40.844Z,1010.29
2019-03-21T00:37:41.019Z,1010.27
2019-03-21T00:38:41.185Z,1010.28
2019-03-21T00:39:41.356Z,1010.35
2019-03-21T00:40:43.833Z,1010.34
2019-03-21T00:41:41.701Z,1010.41
2019-03-21T00:42:41.872Z,1010.44
2019-03-21T00:43:42.047Z,1010.44
2019-03-21T00:44:42.212Z,1010.46
2019-03-21T00:45:42.391Z,1010.43
2019-03-21T00:46:42.561Z,1010.45
2019-03-21T00:47:42.729Z,1010.45
2019-03-21T00:48:42.897Z,1010.42
2019-03-21T00:49:43.073Z,1010.44
2019-03-21T00:50:43.250Z,1010.49
2019-03-21T00:51:43.414Z,1010.47
2019-03-21T00:52:43.590Z,1010.49
2019-03-21T00:53:43.758Z,1010.44
2019-03-21T00:54:43.932Z,1010.40
2019-03-21T00:55:44.107Z,1010.42
2019-03-21T00:56:44.276Z,1010.38
2019-03-21T00:57:44.446Z,1010.34
2019-03-21T00:58:44.617Z,1010.36
2019-03-21T00:59:44.788Z,1010.32
2019-03-21T01:00:44.961Z,1010.34
2019-03-21T01:01:45.130Z,1010.32
2019-03-21T01:02:45.301Z,1010.33
2019-03-21T01:03:45.471Z,1010.33
2019-03-21T01:04:45.641Z,1010.30
2019-03-21T01:06:45.980Z,1010.30
2019-03-21T01:07:46.157Z,1010.30
2019-03-21T01:08:46.323Z,1010.33
2019-03-21T01:09:46.497Z,1010.32
2019-03-21T01:10:46.663Z,1010.32
2019-03-21T01:11:46.833Z,1010.35
2019-03-21T01:12:47.004Z,1010.31
2019-03-21T01:14:47.354Z,1010.31
2019-03-21T01:15:47.524Z,1010.27
2019-03-21T01:16:47.681Z,1010.23
2019-03-21T01:17:47.852Z,1010.19
2019-03-21T01:18:48.033Z,1010.21
2019-03-21T01:19:48.191Z,1010.20
2019-03-21T01:20:48.354Z,1010.20
2019-03-21T01:21:48.528Z,1010.22
2019-03-21T01:22:48.690Z,1010.24
2019-03-21T01:23:48.858Z,1010.21
2019-03-21T01:24:49.025Z,1010.24
2019-03-21T01:25:49.216Z,1010.24
2019-03-21T01:26:49.362Z,1010.24
2019-03-21T01:27:49.528Z,1010.22
2019-03-21T01:28:49.698Z,1010.24
2019-03-21T01:29:49.862Z,1010.24
2019-03-21T01:30:50.034Z,1010.23
2019-03-21T01:31:54.515Z,1010.24
2019-03-21T01:32:50.432Z,1010.23
2019-03-21T01:33:50.602Z,1010.21
2019-03-21T01:34:50.774Z,1010.21
2019-03-21T01:35:50.949Z,1010.16
2019-03-21T01:36:51.118Z,1010.21
2019-03-21T01:37:51.284Z,1010.18
2019-03-21T01:38:51.459Z,1010.18
2019-03-21T01:39:51.628Z,1010.18
2019-03-21T01:40:51.797Z,1010.18
2019-03-21T01:41:51.972Z,1010.17
2019-03-21T01:42:52.144Z,1010.19
2019-03-21T01:43:52.315Z,1010.19
2019-03-21T01:44:52.480Z,1010.16
2019-03-21T01:45:52.661Z,1010.20
2019-03-21T01:46:52.830Z,1010.19
2019-03-21T01:47:52.987Z,1010.15
2019-03-21T01:48:53.163Z,1010.14
2019-03-21T01:49:53.325Z,1010.13
2019-03-21T01:50:53.496Z,1010.13
2019-03-21T01:51:53.667Z,1010.10
2019-03-21T01:52:53.835Z,1010.13
2019-03-21T01:53:54.004Z,1010.13
2019-03-21T01:54:54.185Z,1010.12
2019-03-21T01:56:54.526Z,1010.12
2019-03-21T01:57:54.695Z,1010.08
2019-03-21T01:58:54.863Z,1010.13
2019-03-21T01:59:55.033Z,1010.05
2019-03-21T02:00:55.205Z,1010.08
2019-03-21T02:01:55.380Z,1010.09
2019-03-21T02:02:55.546Z,1010.12
2019-03-21T02:03:55.715Z,1010.09
2019-03-21T02:04:55.886Z,1010.08
2019-03-21T02:05:56.058Z,1009.99
2019-03-21T02:06:56.229Z,1010.00
2019-03-21T02:07:56.396Z,1010.04
2019-03-21T02:08:56.563Z,1010.00
2019-03-21T02:09:56.735Z,1010.01
2019-03-21T02:10:56.908Z,1009.99
2019-03-21T02:11:57.075Z,1010.00
2019-03-21T02:12:57.247Z,1009.99
2019-03-21T02:13:57.422Z,1010.00
2019-03-21T02:14:57.583Z,1009.96
2019-03-21T02:15:59.266Z,1009.90
2019-03-21T02:16:57.928Z,1009.90
2019-03-21T02:17:58.101Z,1009.84
2019-03-21T02:18:58.271Z,1009.83
2019-03-21T02:19:58.489Z,1009.84
2019-03-21T02:20:58.610Z,1009.79
2019-03-21T02:21:58.781Z,1009.79
2019-03-21T02:22:58.959Z,1009.78
2019-03-21T02:23:59.122Z,1009.83
2019-03-21T02:24:59.291Z,1009.81
2019-03-21T02:25:59.471Z,1009.81
2019-03-21T02:26:59.631Z,1009.85
2019-03-21T02:27:59.804Z,1009.84
2019-03-21T02:28:59.974Z,1009.79
2019-03-21T02:30:00.420Z,1009.86
2019-03-21T02:31:00.318Z,1009.77
2019-03-21T02:32:00.470Z,1009.80
2019-03-21T02:33:00.641Z,1009.82
2019-03-21T02:34:00.812Z,1009.82
2019-03-21T02:35:00.979Z,1009.79
2019-03-21T02:36:01.150Z,1009.79
2019-03-21T02:37:01.324Z,1009.83
2019-03-21T02:38:01.493Z,1009.76
2019-03-21T02:39:01.678Z,1009.79
2019-03-21T02:40:01.874Z,1009.81
2019-03-21T02:41:02.005Z,1009.82
2019-03-21T02:42:02.178Z,1009.83
2019-03-21T02:43:02.340Z,1009.79
2019-03-21T02:44:02.518Z,1009.75
2019-03-21T02:45:08.847Z,1009.80
2019-03-21T02:46:02.863Z,1009.72
2019-03-21T02:47:03.024Z,1009.71
2019-03-21T02:48:03.214Z,1009.73
2019-03-21T02:49:03.360Z,1009.74
2019-03-21T02:50:03.531Z,1009.71
2019-03-21T02:51:03.703Z,1009.71
2019-03-21T02:52:03.871Z,1009.72
2019-03-21T02:53:04.037Z,1009.70
2019-03-21T02:54:04.209Z,1009.73
2019-03-21T02:55:04.383Z,1009.70
2019-03-21T02:56:04.560Z,1009.72
2019-03-21T02:57:04.719Z,1009.68
2019-03-21T02:58:04.894Z,1009.70
2019-03-21T02:59:05.063Z,1009.69
2019-03-21T03:00:05.231Z,1009.71
2019-03-21T03:01:05.402Z,1009.69
2019-03-21T03:02:05.579Z,1009.71
2019-03-21T03:03:05.754Z,1009.70
2019-03-21T03:04:05.919Z,1009.68
2019-03-21T03:05:06.086Z,1009.68
2019-03-21T03:06:06.258Z,1009.69
2019-03-21T03:07:06.456Z,1009.72
2019-03-21T03:08:06.594Z,1009.68
2019-03-21T03:09:06.769Z,1009.70
2019-03-21T03:10:06.954Z,1009.73
2019-03-21T03:11:10.479Z,1009.73
2019-03-21T03:12:07.297Z,1009.69
2019-03-21T03:13:07.454Z,1009.72
2019-03-21T03:14:07.629Z,1009.73
2019-03-21T03:15:21.394Z,1009.76
2019-03-21T03:16:07.965Z,1009.76
2019-03-21T03:17:08.141Z,1009.77
2019-03-21T03:18:08.317Z,1009.76
2019-03-21T03:19:08.481Z,1009.79
2019-03-21T03:20:08.652Z,1009.74
2019-03-21T03:21:08.823Z,1009.72
2019-03-21T03:22:09.002Z,1009.68
2019-03-21T03:23:09.177Z,1009.74
2019-03-21T03:24:09.339Z,1009.72
2019-03-21T03:25:09.515Z,1009.73
2019-03-21T03:26:09.688Z,1009.70
2019-03-21T03:27:09.853Z,1009.68
2019-03-21T03:28:10.028Z,1009.68
2019-03-21T03:29:10.199Z,1009.71
2019-03-21T03:30:10.373Z,1009.68
2019-03-21T03:31:10.573Z,1009.69
2019-03-21T03:32:10.726Z,1009.67
2019-03-21T03:33:10.885Z,1009.67
2019-03-21T03:34:11.060Z,1009.68
2019-03-21T03:35:11.222Z,1009.70
2019-03-21T03:36:11.392Z,1009.74
2019-03-21T03:37:11.561Z,1009.76
2019-03-21T03:38:11.733Z,1009.75
2019-03-21T03:39:11.905Z,1009.72
2019-03-21T03:40:12.087Z,1009.69
2019-03-21T03:41:12.239Z,1009.74
2019-03-21T03:42:12.408Z,1009.69
2019-03-21T03:43:12.579Z,1009.73
2019-03-21T03:44:12.751Z,1009.76
2019-03-21T03:45:12.918Z,1009.77
2019-03-21T03:46:13.098Z,1009.77
2019-03-21T03:47:13.280Z,1009.79
2019-03-21T03:48:13.421Z,1009.81
2019-03-21T03:49:13.599Z,1009.74
2019-03-21T03:50:13.755Z,1009.72
2019-03-21T03:51:13.930Z,1009.77
2019-03-21T03:52:14.096Z,1009.77
2019-03-21T03:53:14.264Z,1009.78
2019-03-21T03:54:14.434Z,1009.86
2019-03-21T03:55:14.606Z,1009.88
2019-03-21T03:56:14.777Z,1009.92
2019-03-21T03:57:14.944Z,1009.85
2019-03-21T03:58:15.121Z,1009.88
2019-03-21T03:59:15.291Z,1009.88
2019-03-21T04:00:15.468Z,1009.89
2019-03-21T04:01:15.662Z,1009.90
2019-03-21T04:02:15.851Z,1009.87
2019-03-21T04:03:16.024Z,1009.86
2019-03-21T04:04:16.177Z,1009.85
2019-03-21T04:05:16.355Z,1009.88
2019-03-21T04:06:16.519Z,1009.88
2019-03-21T04:07:16.686Z,1009.89
2019-03-21T04:08:16.866Z,1009.90
2019-03-21T04:09:17.024Z,1009.87
2019-03-21T04:10:17.206Z,1009.90
2019-03-21T04:11:17.368Z,1009.86
2019-03-21T04:12:17.533Z,1009.85
2019-03-21T04:13:17.716Z,1009.85
2019-03-21T04:14:17.872Z,1009.86
2019-03-21T04:16:18.222Z,1009.88
2019-03-21T04:17:18.375Z,1009.87
2019-03-21T04:18:18.545Z,1009.84
2019-03-21T04:19:18.741Z,1009.84
2019-03-21T04:20:18.884Z,1009.88
2019-03-21T04:21:19.049Z,1009.84
2019-03-21T04:22:19.218Z,1009.91
2019-03-21T04:23:19.390Z,1009.84
2019-03-21T04:24:19.574Z,1009.89
2019-03-21T04:25:19.726Z,1009.85
2019-03-21T04:26:19.898Z,1009.86
2019-03-21T04:27:20.089Z,1009.87
2019-03-21T04:28:20.247Z,1009.82
2019-03-21T04:29:20.405Z,1009.85
2019-03-21T04:30:20.581Z,1009.86
2019-03-21T04:31:20.750Z,1009.91
2019-03-21T04:32:20.925Z,1009.83
2019-03-21T04:33:22.711Z,1009.87
2019-03-21T04:34:21.262Z,1009.88
2019-03-21T04:35:21.435Z,1009.90
2019-03-21T04:36:21.595Z,1009.93
2019-03-21T04:37:21.759Z,1009.93
2019-03-21T04:38:21.926Z,1009.92
2019-03-21T04:39:22.100Z,1009.92
2019-03-21T04:40:22.277Z,1009.91
2019-03-21T04:41:22.444Z,1009.90
2019-03-21T04:42:22.611Z,1009.91
2019-03-21T04:43:22.774Z,1009.90
2019-03-21T04:44:22.945Z,1009.90
2019-03-21T04:45:23.118Z,1009.91
2019-03-21T04:46:23.275Z,1009.95
2019-03-21T04:47:23.444Z,1009.93
2019-03-21T04:48:23.614Z,1009.92
2019-03-21T04:49:23.784Z,1009.96
2019-03-21T04:50:23.954Z,1009.94
2019-03-21T04:51:24.138Z,1009.95
2019-03-21T04:52:24.293Z,1009.98
2019-03-21T04:53:26.645Z,1009.99
2019-03-21T04:54:24.818Z,1009.94
2019-03-21T04:55:24.864Z,1009.93
2019-03-21T04:56:25.000Z,1009.85
2019-03-21T04:57:25.197Z,1009.90
2019-03-21T04:58:25.369Z,1009.86
2019-03-21T04:59:25.531Z,1009.88
2019-03-21T05:00:25.701Z,1009.92
2019-03-21T05:01:25.874Z,1009.94
2019-03-21T05:02:26.049Z,1010.00
2019-03-21T05:03:26.196Z,1010.00
2019-03-21T05:04:26.361Z,1009.95
2019-03-21T05:05:26.521Z,1009.96
2019-03-21T05:06:26.686Z,1009.99
2019-03-21T05:07:26.853Z,1009.98
2019-03-21T05:08:27.024Z,1009.93
2019-03-21T05:09:27.190Z,1009.91
2019-03-21T05:10:27.358Z,1009.94
2019-03-21T05:11:27.514Z,1009.95
2019-03-21T05:12:27.680Z,1009.94
2019-03-21T05:13:27.855Z,1009.94
2019-03-21T05:14:28.018Z,1009.95
2019-03-21T05:15:28.190Z,1009.99
2019-03-21T05:16:28.365Z,1009.96
2019-03-21T05:17:28.529Z,1010.05
2019-03-21T05:18:28.701Z,1010.04
2019-03-21T05:19:28.867Z,1010.05
2019-03-21T05:20:29.040Z,1010.08
2019-03-21T05:21:29.233Z,1010.05
2019-03-21T05:22:29.375Z,1010.03
2019-03-21T05:23:29.546Z,1010.03
2019-03-21T05:24:29.719Z,1010.01
2019-03-21T05:25:29.885Z,1010.04
2019-03-21T05:26:30.063Z,1010.04
2019-03-21T05:27:30.231Z,1010.05
2019-03-21T05:28:30.403Z,1010.05
2019-03-21T05:29:30.576Z,1010.06
2019-03-21T05:30:30.748Z,1010.10
2019-03-21T05:31:30.916Z,1010.13
2019-03-21T05:32:31.087Z,1010.09
2019-03-21T05:33:31.261Z,1010.11
2019-03-21T05:34:31.420Z,1010.08
2019-03-21T05:35:31.575Z,1010.08
2019-03-21T05:36:31.739Z,1010.14
2019-03-21T05:37:31.909Z,1010.14
2019-03-21T05:38:32.094Z,1010.17
2019-03-21T05:39:32.275Z,1010.16
2019-03-21T05:40:32.437Z,1010.18
2019-03-21T05:41:32.608Z,1010.18
2019-03-21T05:42:32.771Z,1010.17
2019-03-21T05:43:32.946Z,1010.23
2019-03-21T05:44:33.123Z,1010.22
2019-03-21T05:45:33.272Z,1010.20
2019-03-21T05:46:33.439Z,1010.22
2019-03-21T05:47:33.611Z,1010.26
2019-03-21T05:48:33.776Z,1010.31
2019-03-21T05:49:33.938Z,1010.27
2019-03-21T05:50:34.101Z,1010.25
2019-03-21T05:51:34.276Z,1010.21
2019-03-21T05:52:34.439Z,1010.23
2019-03-21T05:53:34.625Z,1010.26
2019-03-21T05:54:34.786Z,1010.27
2019-03-21T05:55:34.957Z,1010.30
2019-03-21T05:56:35.128Z,1010.32
2019-03-21T05:57:35.298Z,1010.34
2019-03-21T05:58:35.467Z,1010.34
2019-03-21T05:59:35.667Z,1010.34
2019-03-21T06:00:35.801Z,1010.39
2019-03-21T06:01:35.965Z,1010.35
2019-03-21T06:02:36.138Z,1010.38
2019-03-21T06:03:36.307Z,1010.40
2019-03-21T06:04:36.482Z,1010.47
2019-03-21T06:05:36.660Z,1010.42
2019-03-21T06:06:36.824Z,1010.39
2019-03-21T06:07:36.984Z,1010.43
2019-03-21T06:08:37.214Z,1010.40
2019-03-21T06:09:37.317Z,1010.44
2019-03-21T06:10:37.480Z,1010.43
2019-03-21T06:11:39.600Z,1010.47
2019-03-21T06:12:38.507Z,1010.50
2019-03-21T06:13:38.107Z,1010.53
2019-03-21T06:14:38.297Z,1010.54
2019-03-21T06:15:38.413Z,1010.56
2019-03-21T06:16:38.643Z,1010.61
2019-03-21T06:17:38.816Z,1010.67
2019-03-21T06:18:38.892Z,1010.64
2019-03-21T06:19:39.054Z,1010.66
2019-03-21T06:20:39.221Z,1010.68
2019-03-21T06:21:39.410Z,1010.70
2019-03-21T06:22:39.574Z,1010.69
2019-03-21T06:23:39.739Z,1010.72
2019-03-21T06:24:39.903Z,1010.75
2019-03-21T06:25:40.086Z,1010.73
2019-03-21T06:26:40.233Z,1010.80
2019-03-21T06:27:40.394Z,1010.79
2019-03-21T06:28:40.574Z,1010.85
2019-03-21T06:29:40.747Z,1010.82
2019-03-21T06:30:40.912Z,1010.79
2019-03-21T06:31:41.087Z,1010.86
2019-03-21T06:32:41.257Z,1010.84
2019-03-21T06:33:41.433Z,1010.81
2019-03-21T06:34:41.603Z,1010.81
2019-03-21T06:35:41.775Z,1010.86
2019-03-21T06:36:41.950Z,1010.81
2019-03-21T06:37:42.111Z,1010.82
2019-03-21T06:38:42.287Z,1010.88
2019-03-21T06:39:42.470Z,1010.88
2019-03-21T06:40:42.627Z,1010.90
2019-03-21T06:41:42.803Z,1010.89
2019-03-21T06:42:43.029Z,1010.90
2019-03-21T06:43:43.220Z,1010.88
2019-03-21T06:44:43.371Z,1010.84
2019-03-21T06:45:48.204Z,1010.87
2019-03-21T06:46:49.317Z,1010.84
2019-03-21T06:47:43.844Z,1010.91
2019-03-21T06:48:44.078Z,1010.91
2019-03-21T06:49:46.497Z,1010.89
2019-03-21T06:50:44.379Z,1010.91
2019-03-21T06:51:44.524Z,1010.92
2019-03-21T06:52:44.736Z,1010.87
2019-03-21T06:53:44.862Z,1010.90
2019-03-21T06:54:45.046Z,1010.91
2019-03-21T06:55:45.233Z,1010.90
2019-03-21T06:56:45.421Z,1010.90
2019-03-21T06:57:45.524Z,1010.84
2019-03-21T06:58:45.691Z,1010.90
2019-03-21T06:59:45.891Z,1010.86
2019-03-21T07:00:46.082Z,1010.87
2019-03-21T07:01:46.197Z,1010.92
2019-03-21T07:02:46.338Z,1010.95
2019-03-21T07:03:46.526Z,1010.98
2019-03-21T07:04:46.733Z,1010.97
2019-03-21T07:05:46.878Z,1010.94
2019-03-21T07:06:47.051Z,1010.96
2019-03-21T07:07:47.276Z,1011.01
2019-03-21T07:08:47.404Z,1010.99
2019-03-21T07:09:47.571Z,1010.99
2019-03-21T07:10:47.724Z,1011.02
2019-03-21T07:11:47.889Z,1011.02
2019-03-21T07:12:48.071Z,1011.02
2019-03-21T07:13:48.255Z,1011.02
2019-03-21T07:14:48.375Z,1011.02
2019-03-21T07:15:48.600Z,1011.04
2019-03-21T07:16:59.804Z,1011.04
2019-03-21T07:17:48.931Z,1011.03
2019-03-21T07:18:49.164Z,1011.00
2019-03-21T07:19:49.297Z,1010.98
2019-03-21T07:20:49.479Z,1011.00
2019-03-21T07:21:49.642Z,1011.01
2019-03-21T07:22:49.811Z,1011.04
2019-03-21T07:23:49.953Z,1010.99
2019-03-21T07:24:50.167Z,1011.01
2019-03-21T07:25:50.436Z,1011.03
2019-03-21T07:26:50.498Z,1011.05
2019-03-21T07:27:50.771Z,1011.04
2019-03-21T07:28:50.907Z,1011.04
2019-03-21T07:29:51.090Z,1011.05
2019-03-21T07:30:51.251Z,1011.06
2019-03-21T07:31:51.446Z,1011.10
2019-03-21T07:32:52.471Z,1011.08
2019-03-21T07:33:51.865Z,1011.08
2019-03-21T07:34:51.998Z,1011.04
2019-03-21T07:35:52.194Z,1011.03
2019-03-21T07:36:52.389Z,1011.05
2019-03-21T07:37:52.718Z,1011.04
2019-03-21T07:38:52.719Z,1011.07
2019-03-21T07:39:52.859Z,1011.08
2019-03-21T07:40:53.039Z,1011.09
2019-03-21T07:41:53.247Z,1011.03
2019-03-21T07:42:53.419Z,1011.01
2019-03-21T07:43:53.555Z,1010.99
2019-03-21T07:44:53.759Z,1010.95
2019-03-21T07:45:54.049Z,1010.98
2019-03-21T07:46:54.160Z,1010.97
2019-03-21T07:47:54.301Z,1010.95
2019-03-21T07:48:54.496Z,1010.95
2019-03-21T07:49:54.696Z,1010.98
2019-03-21T07:50:54.838Z,1011.01
2019-03-21T07:51:54.981Z,1010.99
2019-03-21T07:52:55.218Z,1010.97
2019-03-21T07:53:55.353Z,1011.00
2019-03-21T07:54:55.509Z,1010.98
2019-03-21T07:55:55.736Z,1010.97
2019-03-21T07:56:55.941Z,1010.95
2019-03-21T07:57:56.176Z,1010.97
2019-03-21T07:58:57.851Z,1010.95
2019-03-21T07:59:56.391Z,1011.01
2019-03-21T08:00:56.576Z,1010.99
2019-03-21T08:01:56.738Z,1010.99
2019-03-21T08:02:56.908Z,1010.97
2019-03-21T08:03:57.096Z,1010.97
2019-03-21T08:04:57.271Z,1010.98
2019-03-21T08:05:57.411Z,1010.97
2019-03-21T08:06:57.589Z,1010.96
2019-03-21T08:07:57.781Z,1011.00
2019-03-21T08:08:57.941Z,1011.01
2019-03-21T08:09:58.117Z,1010.96
2019-03-21T08:10:58.420Z,1010.95
2019-03-21T08:11:58.848Z,1010.96
2019-03-21T08:12:59.119Z,1010.96
2019-03-21T08:13:58.861Z,1010.93
2019-03-21T08:14:58.948Z,1010.94
2019-03-21T08:15:59.159Z,1010.98
2019-03-21T08:16:59.376Z,1010.96
2019-03-21T08:17:59.489Z,1010.96
2019-03-21T08:18:59.702Z,1010.92
2019-03-21T08:19:59.819Z,1010.92
2019-03-21T08:21:00.292Z,1010.91
2019-03-21T08:22:00.198Z,1010.89
2019-03-21T08:23:00.486Z,1010.86
2019-03-21T08:24:00.561Z,1010.86
2019-03-21T08:25:00.775Z,1010.85
2019-03-21T08:26:01.073Z,1010.88
2019-03-21T08:27:01.079Z,1010.85
2019-03-21T08:28:01.242Z,1010.83
2019-03-21T08:29:01.472Z,1010.86
2019-03-21T08:30:01.619Z,1010.91
2019-03-21T08:31:01.760Z,1010.88
2019-03-21T08:33:34.156Z,1010.86
2019-03-21T08:34:34.320Z,1010.88
2019-03-21T08:35:35.091Z,1010.86
2019-03-21T08:36:35.551Z,1010.86
2019-03-21T08:37:34.754Z,1010.88
2019-03-21T08:38:34.915Z,1010.90
2019-03-21T08:39:35.149Z,1010.87
2019-03-21T08:40:35.365Z,1010.89
2019-03-21T08:41:35.493Z,1010.88
2019-03-21T08:42:35.625Z,1010.88
2019-03-21T08:43:35.834Z,1010.86
2019-03-21T08:44:36.003Z,1010.91
2019-03-21T08:45:36.223Z,1010.90
2019-03-21T08:46:36.376Z,1010.87
2019-03-21T08:47:37.148Z,1010.91
2019-03-21T08:48:36.788Z,1010.86
2019-03-21T08:49:36.942Z,1010.85
2019-03-21T08:50:37.142Z,1010.86
2019-03-21T08:51:37.349Z,1010.83
2019-03-21T08:52:37.461Z,1010.88
2019-03-21T08:53:37.614Z,1010.84
2019-03-21T08:54:37.791Z,1010.83
2019-03-21T08:55:37.973Z,1010.86
2019-03-21T08:56:38.235Z,1010.87
2019-03-21T08:57:38.354Z,1010.84
2019-03-21T08:58:38.592Z,1010.86
2019-03-21T08:59:38.734Z,1010.87
2019-03-21T09:01:39.096Z,1010.88
2019-03-21T09:02:39.288Z,1010.84
2019-03-21T09:03:39.563Z,1010.82
2019-03-21T09:04:39.637Z,1010.84
2019-03-21T09:05:39.808Z,1010.82
2019-03-21T09:06:39.970Z,1010.87
2019-03-21T09:07:40.257Z,1010.78
2019-03-21T09:08:40.325Z,1010.80
2019-03-21T09:09:40.537Z,1010.83
2019-03-21T09:10:40.653Z,1010.83
2019-03-21T09:11:40.838Z,1010.80
2019-03-21T09:12:42.662Z,1010.79
2019-03-21T09:13:41.213Z,1010.77
2019-03-21T09:14:41.381Z,1010.77
2019-03-21T09:15:41.557Z,1010.76
2019-03-21T09:16:41.737Z,1010.71
2019-03-21T09:17:41.926Z,1010.73
2019-03-21T09:18:42.103Z,1010.71
2019-03-21T09:19:42.291Z,1010.70
2019-03-21T09:20:42.475Z,1010.67
2019-03-21T09:21:42.664Z,1010.64
2019-03-21T09:22:42.837Z,1010.64
2019-03-21T09:23:43.008Z,1010.64
2019-03-21T09:24:43.195Z,1010.65
2019-03-21T09:25:43.375Z,1010.64
2019-03-21T09:26:43.557Z,1010.64
2019-03-21T09:27:43.756Z,1010.65
2019-03-21T09:28:43.924Z,1010.67
2019-03-21T09:29:53.099Z,1010.64
2019-03-21T09:30:44.291Z,1010.65
2019-03-21T09:31:44.473Z,1010.65
2019-03-21T09:32:44.719Z,1010.62
2019-03-21T09:33:44.874Z,1010.64
2019-03-21T09:34:45.059Z,1010.61
2019-03-21T09:35:45.244Z,1010.64
2019-03-21T09:36:45.458Z,1010.61
2019-03-21T09:37:45.598Z,1010.56
2019-03-21T09:38:45.780Z,1010.55
2019-03-21T09:39:45.972Z,1010.53
2019-03-21T09:40:46.158Z,1010.50
2019-03-21T09:41:46.330Z,1010.50
2019-03-21T09:42:46.517Z,1010.47
2019-03-21T09:43:46.700Z,1010.48
2019-03-21T09:44:46.903Z,1010.48
2019-03-21T09:45:47.100Z,1010.46
2019-03-21T09:46:51.009Z,1010.44
2019-03-21T09:47:47.449Z,1010.48
2019-03-21T09:48:47.618Z,1010.46
2019-03-21T09:49:47.797Z,1010.48
2019-03-21T09:50:47.984Z,1010.46
2019-03-21T09:51:48.166Z,1010.44
2019-03-21T09:52:48.359Z,1010.43
2019-03-21T09:53:48.533Z,1010.40
2019-03-21T09:54:48.715Z,1010.42
2019-03-21T09:55:48.899Z,1010.42
2019-03-21T09:56:49.082Z,1010.37
2019-03-21T09:57:49.254Z,1010.35
2019-03-21T09:58:49.449Z,1010.34
2019-03-21T09:59:49.615Z,1010.36
2019-03-21T10:00:49.798Z,1010.32
2019-03-21T10:01:49.987Z,1010.33
2019-03-21T10:02:50.164Z,1010.29
2019-03-21T10:03:50.343Z,1010.29
2019-03-21T10:04:50.539Z,1010.30
2019-03-21T10:05:51.202Z,1010.27
2019-03-21T10:06:50.862Z,1010.30
2019-03-21T10:07:51.045Z,1010.28
2019-03-21T10:08:51.247Z,1010.30
2019-03-21T10:09:51.414Z,1010.28
2019-03-21T10:10:51.605Z,1010.31
2019-03-21T10:11:51.781Z,1010.29
2019-03-21T10:12:51.963Z,1010.28
2019-03-21T10:13:52.148Z,1010.27
2019-03-21T10:14:52.333Z,1010.21
2019-03-21T10:15:52.535Z,1010.27
2019-03-21T10:16:52.700Z,1010.22
2019-03-21T10:17:52.877Z,1010.22
2019-03-21T10:18:53.060Z,1010.25
2019-03-21T10:19:53.247Z,1010.26
2019-03-21T10:20:53.415Z,1010.23
2019-03-21T10:21:53.607Z,1010.25
2019-03-21T10:22:53.791Z,1010.24
2019-03-21T10:23:53.974Z,1010.22
2019-03-21T10:24:54.156Z,1010.19
2019-03-21T10:25:54.399Z,1010.19
2019-03-21T10:26:54.994Z,1010.17
2019-03-21T10:27:54.696Z,1010.19
2019-03-21T10:28:54.966Z,1010.19
2019-03-21T10:29:55.158Z,1010.13
2019-03-21T10:30:57.306Z,1010.13
2019-03-21T10:31:55.403Z,1010.12
2019-03-21T10:32:55.572Z,1010.09
2019-03-21T10:33:55.812Z,1010.11
2019-03-21T10:34:55.884Z,1010.10
2019-03-21T10:35:56.085Z,1010.07
2019-03-21T10:36:56.224Z,1010.12
2019-03-21T10:37:56.414Z,1010.13
2019-03-21T10:38:56.616Z,1010.11
2019-03-21T10:39:56.769Z,1010.11
2019-03-21T10:40:56.964Z,1010.11
2019-03-21T10:41:57.138Z,1010.09
2019-03-21T10:42:57.315Z,1010.08
2019-03-21T10:43:57.499Z,1010.08
2019-03-21T10:44:57.692Z,1010.07
2019-03-21T10:45:57.870Z,1010.04
2019-03-21T10:46:58.063Z,1010.02
2019-03-21T10:47:58.260Z,1010.01
2019-03-21T10:48:58.426Z,1010.01
2019-03-21T10:49:58.623Z,1010.00
2019-03-21T10:50:58.824Z,1010.02
2019-03-21T10:51:58.979Z,1009.97
2019-03-21T10:52:59.229Z,1010.02
2019-03-21T10:53:59.274Z,1009.96
2019-03-21T10:54:59.452Z,1009.95
2019-03-21T10:55:59.622Z,1009.96
2019-03-21T10:56:59.808Z,1009.98
2019-03-21T10:57:59.986Z,1010.02
2019-03-21T10:59:00.319Z,1009.95
2019-03-21T11:00:01.794Z,1009.94
2019-03-21T11:01:00.463Z,1009.92
2019-03-21T11:02:07.319Z,1009.97
2019-03-21T11:03:01.288Z,1009.92
2019-03-21T11:04:01.674Z,1009.94
2019-03-21T11:05:01.351Z,1009.95
2019-03-21T11:06:02.062Z,1009.92
2019-03-21T11:07:01.844Z,1009.89
2019-03-21T11:08:02.810Z,1009.87
2019-03-21T11:09:02.208Z,1009.88
2019-03-21T11:10:02.385Z,1009.88
2019-03-21T11:11:03.610Z,1009.92
2019-03-21T11:12:03.098Z,1009.87
2019-03-21T11:13:03.014Z,1009.80
2019-03-21T11:14:03.135Z,1009.84
2019-03-21T11:15:06.555Z,1009.84
2019-03-21T11:16:03.689Z,1009.80
2019-03-21T11:17:04.387Z,1009.82
2019-03-21T11:18:03.946Z,1009.80
2019-03-21T11:19:04.317Z,1009.77
2019-03-21T11:20:04.115Z,1009.79
2019-03-21T11:21:05.772Z,1009.77
2019-03-21T11:22:06.663Z,1009.78
2019-03-21T11:23:04.742Z,1009.76
2019-03-21T11:24:04.923Z,1009.81
2019-03-21T11:25:05.182Z,1009.78
2019-03-21T11:26:05.303Z,1009.74
2019-03-21T11:27:05.473Z,1009.72
2019-03-21T11:28:05.674Z,1009.74
2019-03-21T11:29:06.211Z,1009.71
2019-03-21T11:30:15.682Z,1009.71
2019-03-21T11:31:06.262Z,1009.67
2019-03-21T11:32:06.808Z,1009.67
2019-03-21T11:33:09.130Z,1009.66
2019-03-21T11:34:11.946Z,1009.70
2019-03-21T11:35:07.153Z,1009.60
2019-03-21T11:36:08.837Z,1009.60
2019-03-21T11:37:08.129Z,1009.54
2019-03-21T11:38:07.848Z,1009.53
2019-03-21T11:39:08.964Z,1009.49
2019-03-21T11:40:08.467Z,1009.47
2019-03-21T11:41:09.426Z,1009.41
2019-03-21T11:42:09.037Z,1009.44
2019-03-21T11:43:09.028Z,1009.45
2019-03-21T11:44:09.003Z,1009.41
2019-03-21T11:45:09.235Z,1009.43
2019-03-21T11:46:09.236Z,1009.41
2019-03-21T11:47:09.396Z,1009.41
2019-03-21T11:48:09.574Z,1009.38
2019-03-21T11:49:09.757Z,1009.37
2019-03-21T11:50:09.941Z,1009.34
2019-03-21T11:51:10.121Z,1009.31
2019-03-21T11:52:18.156Z,1009.33
2019-03-21T11:53:10.552Z,1009.32
2019-03-21T11:54:10.728Z,1009.38
2019-03-21T11:55:10.908Z,1009.35
2019-03-21T11:56:13.094Z,1009.31
2019-03-21T11:57:11.285Z,1009.29
2019-03-21T11:58:11.473Z,1009.28
2019-03-21T11:59:11.663Z,1009.25
2019-03-21T12:00:11.845Z,1009.28
2019-03-21T12:01:12.036Z,1009.24
2019-03-21T12:02:12.234Z,1009.26
2019-03-21T12:03:14.329Z,1009.20
2019-03-21T12:04:14.224Z,1009.25
2019-03-21T12:05:12.709Z,1009.24
2019-03-21T12:06:12.897Z,1009.27
2019-03-21T12:07:13.062Z,1009.25
2019-03-21T12:08:13.236Z,1009.27
2019-03-21T12:09:13.405Z,1009.19
2019-03-21T12:10:13.628Z,1009.19
2019-03-21T12:11:14.875Z,1009.15
2019-03-21T12:12:15.977Z,1009.15
2019-03-21T12:13:14.057Z,1009.16
2019-03-21T12:14:16.405Z,1009.13
2019-03-21T12:15:14.670Z,1009.12